Time;durP1;ratioP1;P1;durP2;ratioP2;P2;SDS_P1;SDS_P2;PMS_P1;PMS_P2;Temp;Humidity;BMP_temperature;BMP_pressure;BME280_temperature;BME280_humidity;BME280_pressure;Samples;Min_cycle;Max_cycle;Signal;HPM_P1;HPM_P2
2022/12/16 00:00:25;;;;;;;29.80;22.60;;;2.00;99.90;;;;;;5051534;28;20036;-74
2022/12/16 00:02:50;;;;;;;30.08;25.27;;;2.00;99.90;;;;;;5053093;28;20131;-72
2022/12/16 00:05:16;;;;;;;29.52;24.45;;;1.90;99.90;;;;;;5042596;28;20056;-73
2022/12/16 00:07:42;;;;;;;25.58;22.85;;;1.90;99.90;;;;;;5050101;28;20048;-72
2022/12/16 00:10:08;;;;;;;29.17;23.83;;;2.50;99.90;;;;;;5046208;28;20044;-71
2022/12/16 00:12:33;;;;;;;29.92;23.77;;;1.80;99.90;;;;;;5047008;28;20059;-71
2022/12/16 00:14:59;;;;;;;29.42;23.85;;;1.70;99.90;;;;;;5044273;28;20057;-73
2022/12/16 00:17:25;;;;;;;27.30;22.70;;;2.70;99.90;;;;;;5040496;28;20052;-72
2022/12/16 00:19:51;;;;;;;29.58;22.83;;;1.60;99.90;;;;;;5039240;28;20795;-72
2022/12/16 00:22:16;;;;;;;28.10;23.73;;;1.60;99.90;;;;;;5041081;28;20045;-73
2022/12/16 00:24:42;;;;;;;25.00;20.25;;;1.60;99.90;;;;;;5039932;28;20049;-74
2022/12/16 00:27:08;;;;;;;28.77;21.73;;;1.70;99.90;;;;;;5043720;28;20091;-73
2022/12/16 00:29:33;;;;;;;28.67;22.83;;;2.00;99.90;;;;;;5046001;28;20152;-71
2022/12/16 00:31:59;;;;;;;27.05;21.08;;;2.50;99.90;;;;;;5047305;28;20481;-72
2022/12/16 00:34:25;;;;;;;26.63;21.45;;;1.40;99.90;;;;;;5057464;28;20088;-72
2022/12/16 00:36:51;;;;;;;26.90;21.77;;;1.70;99.90;;;;;;5040383;28;20560;-72
2022/12/16 00:39:16;;;;;;;25.90;22.48;;;2.10;99.90;;;;;;5046895;28;20497;-72
2022/12/16 00:41:42;;;;;;;30.38;22.42;;;1.40;99.90;;;;;;5043402;28;20074;-72
2022/12/16 00:44:08;;;;;;;25.35;19.55;;;1.80;99.90;;;;;;5039456;28;20044;-73
2022/12/16 00:46:34;;;;;;;26.95;20.67;;;1.30;99.90;;;;;;5051676;28;20059;-71
2022/12/16 00:48:59;;;;;;;28.90;21.63;;;1.30;99.90;;;;;;5040221;28;20057;-71
2022/12/16 00:51:25;;;;;;;26.58;21.98;;;1.30;99.90;;;;;;5041989;28;20138;-72
2022/12/16 00:53:51;;;;;;;22.70;20.33;;;2.70;99.90;;;;;;5041779;28;20044;-71
2022/12/16 00:56:19;;;;;;;29.90;24.02;;;2.30;99.90;;;;;;5049993;28;20071;-72
2022/12/16 00:58:45;;;;;;;23.98;20.80;;;1.40;99.90;;;;;;5052433;28;20057;-72
2022/12/16 01:01:12;;;;;;;27.33;21.50;;;2.20;99.90;;;;;;5049811;28;20040;-74
2022/12/16 01:03:38;;;;;;;27.40;20.48;;;1.50;99.90;;;;;;5041969;28;20044;-72
2022/12/16 01:06:15;;;;;;;26.90;23.70;;;1.50;99.90;;;;;;5041978;28;20160;-72
2022/12/16 01:08:47;;;;;;;24.48;21.10;;;1.60;99.90;;;;;;5048603;28;20052;-72
2022/12/16 01:11:14;;;;;;;27.45;24.08;;;1.50;99.90;;;;;;5052991;28;20049;-73
2022/12/16 01:13:40;;;;;;;24.92;20.83;;;1.80;99.90;;;;;;5057137;28;20090;-72
2022/12/16 01:16:05;;;;;;;24.40;19.10;;;1.70;99.90;;;;;;5054146;28;20354;-71
2022/12/16 01:18:31;;;;;;;22.90;18.33;;;2.20;99.90;;;;;;5046320;28;20052;-73
2022/12/16 01:21:04;;;;;;;24.52;19.35;;;1.70;99.90;;;;;;5046494;28;20040;-72
2022/12/16 01:23:30;;;;;;;22.83;18.17;;;1.80;99.90;;;;;;5050800;28;20053;-71
2022/12/16 01:25:58;;;;;;;25.17;21.25;;;2.20;99.90;;;;;;5042376;28;20094;-74
2022/12/16 01:28:25;;;;;;;24.63;21.20;;;1.80;99.90;;;;;;5039571;28;20174;-72
2022/12/16 01:30:56;;;;;;;18.55;15.90;;;1.90;99.90;;;;;;5057882;28;20118;-73
2022/12/16 01:33:22;;;;;;;24.77;19.95;;;2.50;99.90;;;;;;5059538;28;20426;-72
2022/12/16 01:35:48;;;;;;;21.70;18.35;;;2.00;99.90;;;;;;5040247;28;20041;-73
2022/12/16 01:38:14;;;;;;;23.05;18.15;;;2.80;99.90;;;;;;5053197;28;20057;-72
2022/12/16 01:40:40;;;;;;;20.13;17.63;;;2.00;99.90;;;;;;5051462;28;20080;-72
2022/12/16 01:43:11;;;;;;;25.00;17.15;;;2.00;99.90;;;;;;5044397;28;20149;-73
2022/12/16 01:45:37;;;;;;;21.98;16.63;;;2.60;99.90;;;;;;5046061;28;20143;-71
2022/12/16 01:48:12;;;;;;;17.40;14.75;;;2.00;99.90;;;;;;5045543;28;20612;-72
2022/12/16 01:50:38;;;;;;;17.42;14.27;;;2.00;99.90;;;;;;5040883;28;20893;-71
2022/12/16 01:53:05;;;;;;;18.60;13.77;;;2.10;99.90;;;;;;5038214;28;20253;-72
2022/12/16 01:55:38;;;;;;;16.77;12.80;;;3.00;99.90;;;;;;5039655;28;20066;-71
2022/12/16 01:58:11;;;;;;;13.35;11.48;;;2.30;99.90;;;;;;5047347;28;20101;-71
2022/12/16 02:00:37;;;;;;;;;;;2.20;99.90;;;;;;5057164;28;20108;-71
2022/12/16 02:03:03;;;;;;;13.88;11.23;;;2.30;99.90;;;;;;5058477;28;19928;-72
2022/12/16 02:05:30;;;;;;;14.02;11.48;;;2.40;99.90;;;;;;5041164;28;20116;-72
2022/12/16 02:08:09;;;;;;;13.45;9.27;;;2.30;99.90;;;;;;5041748;28;20087;-72
2022/12/16 02:10:43;;;;;;;10.65;9.07;;;2.30;99.90;;;;;;5046655;28;20045;-71
2022/12/16 02:13:28;;;;;;;9.93;8.75;;;2.30;99.90;;;;;;5054353;28;20153;-72
2022/12/16 02:15:59;;;;;;;11.15;9.05;;;2.30;99.90;;;;;;5054293;28;20058;-72
2022/12/16 02:18:53;;;;;;;12.68;7.00;;;2.40;99.90;;;;;;5047452;28;20056;-72
2022/12/16 02:21:31;;;;;;;7.82;6.47;;;2.40;99.90;;;;;;5049693;28;20832;-72
2022/12/16 02:24:14;;;;;;;10.93;7.28;;;3.10;99.90;;;;;;5039059;28;20063;-71
2022/12/16 02:26:40;;;;;;;;;;;2.40;99.90;;;;;;5040133;28;20156;-72
2022/12/16 02:29:30;;;;;;;8.32;6.07;;;2.40;99.90;;;;;;5046356;28;19924;-71
2022/12/16 02:31:56;;;;;;;7.32;5.63;;;2.40;99.90;;;;;;5054712;28;20045;-73
2022/12/16 02:34:36;;;;;;;6.40;5.53;;;2.50;99.90;;;;;;5046436;28;20611;-73
2022/12/16 02:37:11;;;;;;;9.10;5.65;;;4.20;99.90;;;;;;5044057;28;20512;-72
2022/12/16 02:39:47;;;;;;;10.35;5.50;;;2.60;99.90;;;;;;5053005;28;20064;-71
2022/12/16 02:42:20;;;;;;;6.93;5.10;;;2.60;99.90;;;;;;5047030;28;20098;-71
2022/12/16 02:45:07;;;;;;;7.07;5.50;;;3.80;99.90;;;;;;5041279;28;20139;-72
2022/12/16 02:47:33;;;;;;;5.45;4.70;;;2.70;99.90;;;;;;5042154;28;20056;-72
2022/12/16 02:49:59;;;;;;;6.57;5.43;;;2.80;99.90;;;;;;5048065;28;20041;-72
2022/12/16 02:52:28;;;;;;;7.10;5.93;;;2.70;99.90;;;;;;5048573;28;20066;-71
2022/12/16 02:55:02;;;;;;;6.45;5.75;;;2.70;99.90;;;;;;5052746;28;20145;-71
2022/12/16 02:58:19;;;;;;;8.93;5.25;;;3.50;99.90;;;;;;5059698;28;20146;-72
2022/12/16 03:01:16;;;;;;;5.00;4.60;;;2.80;99.90;;;;;;5021883;28;20136;-72
2022/12/16 03:04:04;;;;;;;5.70;3.97;;;2.80;99.90;;;;;;5045514;28;20079;-72
2022/12/16 03:06:32;;;;;;;7.82;4.32;;;3.50;99.90;;;;;;5043794;28;20405;-72
2022/12/16 03:09:02;;;;;;;8.05;4.88;;;3.20;99.90;;;;;;5048471;28;20040;-71
2022/12/16 03:11:30;;;;;;;5.10;4.20;;;2.80;99.90;;;;;;5052434;28;20552;-71
2022/12/16 03:13:58;;;;;;;6.60;4.45;;;4.10;99.90;;;;;;5046385;28;20064;-72
2022/12/16 03:16:28;;;;;;;6.43;5.82;;;2.90;99.90;;;;;;5052547;28;20041;-73
2022/12/16 03:18:58;;;;;;;8.82;5.70;;;2.90;99.90;;;;;;5048661;28;20053;-73
2022/12/16 03:21:36;;;;;;;4.53;4.13;;;2.90;99.90;;;;;;5041258;28;20735;-72
2022/12/16 03:24:06;;;;;;;7.63;4.82;;;2.90;99.90;;;;;;5050471;28;20128;-73
2022/12/16 03:27:01;;;;;;;6.03;4.57;;;3.00;99.90;;;;;;5051099;28;20694;-70
2022/12/16 03:29:26;;;;;;;5.60;4.60;;;3.00;99.90;;;;;;5044032;28;20064;-71
2022/12/16 03:31:59;;;;;;;7.13;5.35;;;3.00;99.90;;;;;;5047673;28;20084;-71
2022/12/16 03:34:32;;;;;;;6.95;6.13;;;3.00;99.90;;;;;;5055853;28;20063;-71
2022/12/16 03:37:06;;;;;;;7.53;6.75;;;3.70;99.90;;;;;;5059794;28;20941;-72
2022/12/16 03:39:43;;;;;;;7.85;7.15;;;3.00;99.90;;;;;;5055426;28;20095;-72
2022/12/16 03:42:09;;;;;;;11.73;8.15;;;3.00;99.90;;;;;;5045808;28;20134;-73
2022/12/16 03:44:35;;;;;;;11.38;9.80;;;3.00;99.90;;;;;;5052766;28;20045;-70
2022/12/16 03:47:01;;;;;;;11.32;8.88;;;3.00;99.90;;;;;;5056731;28;20083;-71
2022/12/16 03:49:27;;;;;;;12.00;9.63;;;3.30;99.90;;;;;;5048029;28;20053;-72
2022/12/16 03:51:53;;;;;;;11.68;10.38;;;3.10;99.90;;;;;;5054354;28;20687;-71
2022/12/16 03:54:20;;;;;;;11.15;10.05;;;3.00;99.90;;;;;;5056480;28;20080;-72
2022/12/16 03:56:46;;;;;;;13.38;11.15;;;3.00;99.90;;;;;;5047495;28;20394;-72
2022/12/16 03:59:12;;;;;;;14.70;12.88;;;3.00;99.90;;;;;;5042723;28;20044;-74
2022/12/16 04:01:39;;;;;;;13.52;11.20;;;3.40;99.90;;;;;;5047756;28;20040;-73
2022/12/16 04:04:05;;;;;;;15.27;13.43;;;3.00;99.90;;;;;;5049447;28;20040;-72
2022/12/16 04:06:30;;;;;;;18.10;14.98;;;3.70;99.90;;;;;;5059888;28;20497;-71
2022/12/16 04:08:56;;;;;;;16.20;14.27;;;3.60;99.90;;;;;;5054949;28;20056;-72
2022/12/16 04:25:28;;;;;;;28.92;21.17;;;2.80;99.90;;;;;;5086059;28;20147;-72
2022/12/16 04:27:54;;;;;;;28.83;23.13;;;2.80;99.90;;;;;;5052221;28;20093;-72
2022/12/16 04:30:20;;;;;;;27.83;23.08;;;2.80;99.90;;;;;;5057990;28;20057;-72
